createdAt,value
2022-11-05T00:00:08.888Z,11.27
2022-11-05T00:02:53.884Z,13.32
2022-11-05T00:05:38.657Z,10.65
2022-11-05T00:08:24.255Z,9.73
2022-11-05T00:10:50.880Z,8.52
2022-11-05T00:13:35.980Z,7.35
2022-11-05T00:16:20.801Z,7.28
2022-11-05T00:19:06.449Z,7.43
2022-11-05T00:21:52.725Z,6.45
2022-11-05T00:24:37.505Z,7.22
2022-11-05T00:27:04.051Z,7.40
2022-11-05T00:29:30.529Z,6.95
2022-11-05T00:31:56.983Z,6.82
2022-11-05T00:34:23.410Z,5.55
2022-11-05T00:36:49.896Z,5.72
2022-11-05T00:39:16.323Z,6.30
2022-11-05T00:42:05.184Z,7.10
2022-11-05T00:44:50.335Z,6.32
2022-11-05T00:47:34.979Z,5.75
2022-11-05T00:50:04.545Z,5.65
2022-11-05T00:52:49.671Z,5.07
2022-11-05T00:55:16.202Z,4.40
2022-11-05T00:57:42.630Z,5.10
2022-11-05T01:00:09.746Z,4.30
2022-11-05T01:02:36.333Z,4.75
2022-11-05T01:05:03.229Z,4.85
2022-11-05T01:07:29.670Z,5.10
2022-11-05T01:09:56.113Z,4.68
2022-11-05T01:12:22.531Z,5.65
2022-11-05T01:14:49.082Z,5.97
2022-11-05T01:17:15.560Z,5.22
2022-11-05T01:19:44.014Z,5.60
2022-11-05T01:22:10.439Z,4.88
2022-11-05T01:24:36.862Z,5.28
2022-11-05T01:27:05.793Z,4.55
2022-11-05T01:29:32.316Z,5.10
2022-11-05T01:31:58.767Z,4.82
2022-11-05T01:34:25.195Z,4.75
2022-11-05T01:36:51.623Z,4.68
2022-11-05T01:39:18.005Z,4.70
2022-11-05T01:41:44.581Z,4.50
2022-11-05T01:44:48.205Z,4.03
2022-11-05T01:47:34.901Z,4.40
2022-11-05T01:50:12.697Z,4.20
2022-11-05T01:52:39.556Z,4.20
2022-11-05T01:55:09.167Z,4.03
2022-11-05T01:57:35.724Z,4.10
2022-11-05T02:00:02.543Z,4.28
2022-11-05T02:02:30.997Z,4.15
2022-11-05T02:05:03.277Z,4.05
2022-11-05T02:07:31.076Z,3.83
2022-11-05T02:10:06.075Z,4.30
2022-11-05T02:12:37.954Z,4.90
2022-11-05T02:15:07.811Z,4.55
2022-11-05T02:17:56.709Z,4.50
2022-11-05T02:20:23.534Z,4.65
2022-11-05T02:23:02.221Z,4.95
2022-11-05T02:25:37.744Z,4.65
2022-11-05T02:28:27.427Z,4.82
2022-11-05T02:31:05.192Z,4.82
2022-11-05T02:33:56.630Z,4.95
2022-11-05T02:36:50.339Z,4.78
2022-11-05T02:39:34.849Z,5.70
2022-11-05T02:42:10.292Z,5.90
2022-11-05T02:45:10.928Z,5.60
2022-11-05T02:47:58.897Z,4.88
2022-11-05T02:50:35.181Z,4.70
2022-11-05T02:53:04.479Z,5.20
2022-11-05T02:55:39.090Z,4.97
2022-11-05T02:58:06.001Z,4.70
2022-11-05T03:00:44.800Z,5.32
2022-11-05T03:03:19.674Z,5.28
2022-11-05T03:06:10.425Z,5.65
2022-11-05T03:08:49.733Z,5.75
2022-11-05T03:11:21.783Z,6.00
2022-11-05T03:13:48.191Z,5.82
2022-11-05T03:16:40.431Z,6.35
2022-11-05T03:19:16.917Z,6.35
2022-11-05T03:21:52.818Z,6.18
2022-11-05T03:24:25.580Z,6.38
2022-11-05T03:27:13.629Z,6.20
2022-11-05T03:29:47.517Z,5.88
2022-11-05T03:32:20.537Z,5.38
2022-11-05T03:34:51.811Z,6.25
2022-11-05T03:37:22.508Z,5.85
2022-11-05T03:39:54.142Z,5.40
2022-11-05T03:42:28.826Z,5.22
2022-11-05T03:44:58.844Z,5.97
2022-11-05T03:47:33.755Z,5.60
2022-11-05T03:50:04.901Z,5.32
2022-11-05T03:52:40.039Z,5.70
2022-11-05T03:55:07.109Z,5.30
2022-11-05T03:57:39.380Z,5.43
2022-11-05T04:00:10.792Z,4.90
2022-11-05T04:02:40.212Z,5.30
2022-11-05T04:05:07.047Z,5.60
2022-11-05T04:07:52.154Z,5.07
2022-11-05T04:10:37.044Z,5.55
2022-11-05T04:13:21.915Z,5.95
2022-11-05T04:16:06.651Z,5.93
2022-11-05T04:18:33.104Z,5.75
2022-11-05T04:21:18.722Z,6.32
2022-11-05T04:24:03.628Z,5.78
2022-11-05T04:26:30.079Z,6.00
2022-11-05T04:29:15.164Z,5.22
2022-11-05T04:31:41.635Z,5.28
2022-11-05T04:34:08.089Z,5.10
2022-11-05T04:36:34.612Z,4.38
2022-11-05T04:39:01.048Z,4.72
2022-11-05T04:41:27.516Z,4.57
2022-11-05T04:43:53.943Z,4.88
2022-11-05T04:46:20.407Z,4.82
2022-11-05T04:48:47.008Z,4.65
2022-11-05T04:51:13.444Z,5.40
2022-11-05T04:53:39.849Z,5.00
2022-11-05T04:56:18.098Z,5.10
2022-11-05T04:58:45.085Z,5.05
2022-11-05T05:01:14.050Z,5.07
2022-11-05T05:03:40.660Z,5.00
2022-11-05T05:06:07.302Z,5.07
2022-11-05T05:08:34.228Z,5.03
2022-11-05T05:11:07.820Z,4.82
2022-11-05T05:13:34.694Z,5.15
2022-11-05T05:16:08.091Z,5.55
2022-11-05T05:18:35.338Z,5.28
2022-11-05T05:21:20.851Z,5.32
2022-11-05T05:23:48.231Z,5.70
2022-11-05T05:26:16.070Z,5.35
2022-11-05T05:28:42.602Z,5.10
2022-11-05T05:31:09.568Z,5.47
2022-11-05T05:33:38.473Z,5.10
2022-11-05T05:36:10.956Z,5.25
2022-11-05T05:38:37.993Z,5.03
2022-11-05T05:41:04.541Z,5.28
2022-11-05T05:43:37.004Z,5.50
2022-11-05T05:46:04.865Z,5.60
2022-11-05T05:48:31.693Z,5.30
2022-11-05T05:51:06.531Z,5.57
2022-11-05T05:53:33.558Z,5.85
2022-11-05T05:56:02.510Z,5.43
2022-11-05T05:58:33.337Z,6.18
2022-11-05T06:01:01.388Z,6.68
2022-11-05T06:03:27.899Z,5.60
2022-11-05T06:05:54.393Z,5.40
2022-11-05T06:08:20.880Z,5.18
2022-11-05T06:10:51.445Z,5.53
2022-11-05T06:13:17.934Z,5.43
2022-11-05T06:15:44.457Z,5.45
2022-11-05T06:18:10.864Z,5.65
2022-11-05T06:20:39.657Z,5.22
2022-11-05T06:23:06.154Z,5.43
2022-11-05T06:25:34.951Z,13.77
2022-11-05T06:28:10.248Z,10.50
2022-11-05T06:30:36.682Z,9.05
2022-11-05T06:33:04.718Z,11.00
2022-11-05T06:35:34.576Z,14.40
2022-11-05T06:38:01.830Z,10.82
2022-11-05T06:40:29.112Z,11.85
2022-11-05T06:42:55.751Z,10.77
2022-11-05T06:45:22.455Z,18.13
2022-11-05T06:47:48.931Z,8.73
2022-11-05T06:50:17.692Z,7.28
2022-11-05T06:52:44.162Z,6.13
2022-11-05T06:55:10.631Z,6.88
2022-11-05T06:57:38.716Z,6.53
2022-11-05T07:00:07.984Z,6.85
2022-11-05T07:02:34.816Z,6.57
2022-11-05T07:05:01.246Z,6.30
2022-11-05T07:07:29.980Z,6.65
2022-11-05T07:09:56.514Z,6.47
2022-11-05T07:12:23.026Z,4.38
2022-11-05T07:14:49.599Z,4.10
2022-11-05T07:17:18.609Z,3.83
2022-11-05T07:19:45.170Z,5.32
2022-11-05T07:22:11.691Z,6.40
2022-11-05T07:24:38.230Z,8.43
2022-11-05T07:27:04.774Z,10.45
2022-11-05T07:29:35.879Z,5.95
2022-11-05T07:32:02.435Z,7.78
2022-11-05T07:34:28.981Z,7.68
2022-11-05T07:36:55.563Z,6.63
2022-11-05T07:39:22.211Z,7.18
2022-11-05T07:41:48.740Z,8.57
2022-11-05T07:44:15.292Z,7.43
2022-11-05T07:46:42.008Z,7.15
2022-11-05T07:49:08.602Z,7.03
2022-11-05T07:51:35.270Z,6.13
2022-11-05T07:54:01.849Z,5.65
2022-11-05T07:56:28.343Z,4.60
2022-11-05T07:58:54.969Z,4.10
2022-11-05T08:01:21.787Z,5.80
2022-11-05T08:03:48.530Z,4.32
2022-11-05T08:06:15.229Z,4.13
2022-11-05T08:08:44.090Z,4.25
2022-11-05T08:11:12.156Z,3.08
2022-11-05T08:13:39.149Z,3.83
2022-11-05T08:16:05.970Z,3.35
2022-11-05T08:18:32.922Z,3.50
2022-11-05T08:21:01.758Z,3.33
2022-11-05T08:23:29.694Z,3.13
2022-11-05T08:25:56.988Z,3.50
2022-11-05T08:28:25.198Z,4.13
2022-11-05T08:30:54.189Z,3.78
2022-11-05T08:33:21.670Z,3.22
2022-11-05T08:35:49.136Z,3.75
2022-11-05T08:38:18.313Z,3.90
2022-11-05T08:40:54.211Z,3.58
2022-11-05T08:43:21.204Z,3.10
2022-11-05T08:45:47.947Z,3.08
2022-11-05T08:48:20.402Z,2.80
2022-11-05T08:50:48.253Z,3.10
2022-11-05T08:53:15.699Z,3.25
2022-11-05T08:55:47.563Z,2.95
2022-11-05T08:58:16.951Z,3.03
2022-11-05T09:00:49.358Z,3.10
2022-11-05T09:03:18.769Z,2.90
2022-11-05T09:05:45.510Z,3.17
2022-11-05T09:08:15.067Z,2.90
2022-11-05T09:10:42.411Z,3.10
2022-11-05T09:13:16.524Z,3.10
2022-11-05T09:15:45.018Z,3.20
2022-11-05T09:18:13.920Z,2.92
2022-11-05T09:20:40.514Z,3.50
2022-11-05T09:23:08.843Z,3.40
2022-11-05T09:25:35.866Z,3.25
2022-11-05T09:28:22.094Z,3.45
2022-11-05T09:30:52.853Z,3.58
2022-11-05T09:33:22.023Z,3.50
2022-11-05T09:35:48.680Z,3.45
2022-11-05T09:38:15.648Z,3.38
2022-11-05T09:40:54.812Z,3.72
2022-11-05T09:43:31.405Z,3.30
2022-11-05T09:46:03.740Z,3.65
2022-11-05T09:48:32.877Z,3.67
2022-11-05T09:50:59.662Z,4.20
2022-11-05T09:53:26.416Z,3.40
2022-11-05T09:55:56.825Z,3.78
2022-11-05T09:58:29.582Z,3.75
2022-11-05T10:00:58.402Z,4.30
2022-11-05T10:03:28.203Z,3.75
2022-11-05T10:06:03.514Z,3.97
2022-11-05T10:08:40.898Z,3.70
2022-11-05T10:11:15.386Z,3.72
2022-11-05T10:13:52.624Z,4.00
2022-11-05T10:16:51.590Z,3.67
2022-11-05T10:19:24.631Z,3.90
2022-11-05T10:22:16.427Z,3.90
2022-11-05T10:24:47.102Z,4.10
2022-11-05T10:27:18.391Z,4.40
2022-11-05T10:29:45.629Z,4.05
2022-11-05T10:32:19.601Z,3.67
2022-11-05T10:34:46.467Z,4.05
2022-11-05T10:37:13.023Z,3.70
2022-11-05T10:39:42.060Z,4.20
2022-11-05T10:42:30.033Z,3.85
2022-11-05T10:45:18.191Z,4.07
2022-11-05T10:48:27.718Z,4.20
2022-11-05T10:50:54.304Z,3.78
2022-11-05T10:53:29.075Z,4.20
2022-11-05T10:56:01.033Z,4.40
2022-11-05T10:58:31.241Z,4.47
2022-11-05T11:01:00.903Z,4.18
2022-11-05T11:03:47.018Z,4.72
2022-11-05T11:06:27.816Z,4.88
2022-11-05T11:08:57.836Z,4.85
2022-11-05T11:11:41.194Z,4.65
2022-11-05T11:14:13.843Z,4.47
2022-11-05T11:16:45.792Z,4.55
2022-11-05T11:19:38.799Z,4.20
2022-11-05T11:22:05.386Z,3.97
2022-11-05T11:24:42.200Z,4.78
2022-11-05T11:27:24.809Z,4.10
2022-11-05T11:29:59.833Z,4.70
2022-11-05T11:32:39.597Z,4.43
2022-11-05T11:35:17.926Z,5.03
2022-11-05T11:37:45.524Z,4.38
2022-11-05T11:40:22.884Z,4.72
2022-11-05T11:42:56.075Z,4.93
2022-11-05T11:45:33.388Z,4.85
2022-11-05T11:48:05.127Z,5.18
2022-11-05T11:50:33.874Z,4.80
2022-11-05T11:53:22.237Z,5.25
2022-11-05T11:55:54.965Z,9.88
2022-11-05T11:58:23.946Z,8.05
2022-11-05T12:00:59.115Z,6.80
2022-11-05T12:03:32.427Z,5.88
2022-11-05T12:05:59.097Z,6.13
2022-11-05T12:09:06.223Z,4.97
2022-11-05T12:11:43.785Z,6.30
2022-11-05T12:14:19.117Z,5.18
2022-11-05T12:17:04.460Z,5.18
2022-11-05T12:19:45.795Z,5.20
2022-11-05T12:22:24.617Z,8.15
2022-11-05T12:25:08.304Z,5.63
2022-11-05T12:27:45.088Z,7.13
2022-11-05T12:30:17.533Z,6.70
2022-11-05T12:33:05.964Z,4.60
2022-11-05T12:36:03.878Z,4.40
2022-11-05T12:38:50.658Z,18.17
2022-11-05T12:41:28.041Z,10.80
2022-11-05T12:44:17.640Z,32.60
2022-11-05T12:46:56.314Z,13.15
2022-11-05T12:49:25.876Z,5.47
2022-11-05T12:52:13.321Z,4.32
2022-11-05T12:55:05.541Z,3.88
2022-11-05T12:57:35.989Z,3.22
2022-11-05T13:00:09.203Z,3.38
2022-11-05T13:02:49.953Z,5.07
2022-11-05T13:05:37.655Z,4.20
2022-11-05T13:08:19.016Z,32.30
2022-11-05T13:10:50.891Z,19.92
2022-11-05T13:13:29.385Z,8.65
2022-11-05T13:16:13.106Z,2.63
2022-11-05T13:18:48.373Z,7.57
2022-11-05T13:21:19.711Z,18.13
2022-11-05T13:23:56.900Z,29.05
2022-11-05T13:27:05.075Z,56.13
2022-11-05T13:29:38.883Z,7.03
2022-11-05T13:34:40.432Z,3.10
2022-11-05T13:37:27.364Z,1.60
2022-11-05T13:39:57.370Z,1.73
2022-11-05T13:42:43.003Z,1.90
2022-11-05T13:45:21.921Z,1.75
2022-11-05T13:48:02.555Z,2.10
2022-11-05T13:50:56.738Z,6.28
2022-11-05T13:53:25.473Z,2.97
2022-11-05T13:56:05.849Z,1.48
2022-11-05T13:58:50.692Z,1.15
2022-11-05T14:01:42.218Z,1.20
2022-11-05T14:04:20.696Z,1.70
2022-11-05T14:06:47.697Z,1.80
2022-11-05T14:09:23.590Z,1.60
2022-11-05T14:11:54.740Z,1.50
2022-11-05T14:14:25.394Z,2.15
2022-11-05T14:16:54.980Z,2.50
2022-11-05T14:19:32.817Z,17.73
2022-11-05T14:22:02.574Z,2.70
2022-11-05T14:24:42.981Z,1.95
2022-11-05T14:27:10.354Z,2.10
2022-11-05T14:29:36.827Z,2.58
2022-11-05T14:32:23.784Z,6.82
2022-11-05T14:35:04.102Z,1.88
2022-11-05T14:37:30.646Z,1.80
2022-11-05T14:40:17.452Z,1.83
2022-11-05T14:42:54.577Z,1.80
2022-11-05T14:45:28.162Z,2.42
2022-11-05T14:47:57.798Z,2.45
2022-11-05T14:50:41.954Z,1.92
2022-11-05T14:56:05.310Z,1.90
2022-11-05T14:58:35.571Z,1.90
2022-11-05T15:01:08.466Z,2.00
2022-11-05T15:03:47.151Z,1.70
2022-11-05T15:06:35.277Z,2.13
2022-11-05T15:09:29.720Z,1.85
2022-11-05T15:14:30.617Z,2.45
2022-11-05T15:17:04.109Z,2.15
2022-11-05T15:19:36.992Z,2.00
2022-11-05T15:22:10.365Z,3.60
2022-11-05T15:24:37.454Z,6.35
2022-11-05T15:27:19.064Z,5.47
2022-11-05T15:29:45.875Z,4.40
2022-11-05T15:32:22.953Z,3.88
2022-11-05T15:34:54.469Z,4.20
2022-11-05T15:37:24.949Z,4.10
2022-11-05T15:39:53.871Z,4.13
2022-11-05T15:42:26.495Z,4.50
2022-11-05T15:44:57.230Z,4.97
2022-11-05T15:47:34.185Z,4.30
2022-11-05T15:50:15.126Z,10.05
2022-11-05T15:52:54.568Z,18.90
2022-11-05T15:55:24.435Z,8.02
2022-11-05T15:58:20.203Z,9.48
2022-11-05T16:00:48.463Z,12.27
2022-11-05T16:03:35.391Z,12.35
2022-11-05T16:06:02.627Z,12.80
2022-11-05T16:08:32.616Z,6.63
2022-11-05T16:11:03.974Z,11.73
2022-11-05T16:13:30.487Z,14.93
2022-11-05T16:15:59.924Z,6.40
2022-11-05T16:18:33.265Z,2.95
2022-11-05T16:21:12.014Z,2.38
2022-11-05T16:24:00.579Z,3.00
2022-11-05T16:27:02.203Z,3.00
2022-11-05T16:29:39.176Z,2.20
2022-11-05T16:32:16.728Z,1.98
2022-11-05T16:34:50.964Z,2.20
2022-11-05T16:37:21.052Z,3.35
2022-11-05T16:39:47.933Z,2.90
2022-11-05T16:42:38.540Z,3.88
2022-11-05T16:45:06.792Z,4.45
2022-11-05T16:47:33.432Z,3.42
2022-11-05T16:49:59.999Z,2.90
2022-11-05T16:52:26.576Z,2.35
2022-11-05T16:54:53.353Z,2.17
2022-11-05T16:57:32.082Z,2.60
2022-11-05T17:00:00.404Z,1.90
2022-11-05T17:02:27.534Z,2.10
2022-11-05T17:04:54.482Z,2.35
2022-11-05T17:07:21.082Z,2.38
2022-11-05T17:09:47.676Z,1.80
2022-11-05T17:12:14.787Z,2.08
2022-11-05T17:14:41.568Z,2.33
2022-11-05T17:17:08.143Z,2.60
2022-11-05T17:19:34.708Z,2.20
2022-11-05T17:22:01.290Z,2.00
2022-11-05T17:24:27.870Z,2.50
2022-11-05T17:26:54.724Z,2.88
2022-11-05T17:29:23.848Z,2.47
2022-11-05T17:31:50.547Z,2.45
2022-11-05T17:34:18.294Z,2.67
2022-11-05T17:36:45.110Z,2.72
2022-11-05T17:39:14.195Z,3.08
2022-11-05T17:41:40.715Z,4.00
2022-11-05T17:44:10.305Z,3.42
2022-11-05T17:46:37.030Z,3.95
2022-11-05T17:49:03.511Z,4.25
2022-11-05T17:51:30.086Z,4.47
2022-11-05T17:53:56.652Z,5.28
2022-11-05T17:56:32.477Z,5.60
2022-11-05T17:59:03.637Z,4.80
2022-11-05T18:01:32.893Z,5.07
2022-11-05T18:04:03.777Z,5.20
2022-11-05T18:06:34.798Z,4.47
2022-11-05T18:09:01.668Z,5.10
2022-11-05T18:11:30.961Z,6.00
2022-11-05T18:13:57.563Z,7.90
2022-11-05T18:16:24.089Z,5.80
2022-11-05T18:18:53.203Z,4.13
2022-11-05T18:21:19.858Z,3.85
2022-11-05T18:23:46.524Z,3.10
2022-11-05T18:26:14.989Z,3.40
2022-11-05T18:28:42.002Z,3.35
2022-11-05T18:31:22.761Z,3.90
2022-11-05T18:33:50.423Z,4.30
2022-11-05T18:36:18.276Z,4.10
2022-11-05T18:38:45.009Z,4.55
2022-11-05T18:41:14.247Z,4.40
2022-11-05T18:43:41.134Z,4.63
2022-11-05T18:46:08.151Z,5.25
2022-11-05T18:48:37.253Z,5.70
2022-11-05T18:51:09.434Z,5.82
2022-11-05T18:53:36.405Z,5.82
2022-11-05T18:56:15.286Z,5.57
2022-11-05T18:58:42.666Z,5.82
2022-11-05T19:01:17.552Z,6.07
2022-11-05T19:03:44.653Z,6.78
2022-11-05T19:06:11.567Z,7.55
2022-11-05T19:08:38.495Z,8.25
2022-11-05T19:11:14.454Z,7.22
2022-11-05T19:13:41.736Z,6.70
2022-11-05T19:16:10.270Z,6.70
2022-11-05T19:18:37.404Z,7.80
2022-11-05T19:21:09.171Z,7.53
2022-11-05T19:23:38.958Z,6.15
2022-11-05T19:26:07.473Z,5.28
2022-11-05T19:28:34.472Z,5.15
2022-11-05T19:31:01.084Z,4.70
2022-11-05T19:33:28.608Z,7.43
2022-11-05T19:35:55.560Z,7.65
2022-11-05T19:38:22.851Z,6.30
2022-11-05T19:40:52.291Z,6.35
2022-11-05T19:43:21.113Z,7.72
2022-11-05T19:45:47.998Z,11.10
2022-11-05T19:48:19.102Z,17.75
2022-11-05T19:50:46.723Z,15.20
2022-11-05T19:53:13.346Z,16.58
2022-11-05T19:55:40.938Z,15.98
2022-11-05T19:58:08.656Z,12.70
2022-11-05T20:00:35.322Z,13.23
2022-11-05T20:03:02.507Z,19.27
2022-11-05T20:05:29.226Z,12.40
2022-11-05T20:07:56.561Z,8.77
2022-11-05T20:10:23.090Z,8.75
2022-11-05T20:12:49.894Z,8.10
2022-11-05T20:15:18.689Z,8.15
2022-11-05T20:17:52.908Z,8.32
2022-11-05T20:20:20.185Z,8.60
2022-11-05T20:22:46.798Z,7.55
2022-11-05T20:25:13.444Z,6.75
2022-11-05T20:27:40.044Z,7.78
2022-11-05T20:30:07.324Z,7.50
2022-11-05T20:32:33.955Z,7.57
2022-11-05T20:35:00.486Z,8.40
2022-11-05T20:37:27.079Z,10.15
2022-11-05T20:39:56.134Z,11.73
2022-11-05T20:42:22.858Z,13.10
2022-11-05T20:44:49.497Z,10.15
2022-11-05T20:47:16.197Z,8.88
2022-11-05T20:49:42.810Z,7.68
2022-11-05T20:52:09.485Z,7.47
2022-11-05T20:54:36.034Z,7.05
2022-11-05T20:57:02.585Z,6.63
2022-11-05T20:59:29.242Z,6.68
2022-11-05T21:01:58.088Z,6.15
2022-11-05T21:04:24.714Z,6.43
2022-11-05T21:06:51.321Z,5.82
2022-11-05T21:09:20.448Z,5.70
2022-11-05T21:12:05.650Z,5.80
2022-11-05T21:14:32.529Z,5.65
2022-11-05T21:16:59.057Z,5.47
2022-11-05T21:19:25.674Z,5.65
2022-11-05T21:21:52.214Z,6.07
2022-11-05T21:24:18.737Z,6.45
2022-11-05T21:26:45.318Z,7.57
2022-11-05T21:29:11.975Z,8.02
2022-11-05T21:31:38.592Z,7.25
2022-11-05T21:34:05.257Z,7.22
2022-11-05T21:36:32.070Z,7.07
2022-11-05T21:38:58.771Z,6.88
2022-11-05T21:41:27.951Z,6.15
2022-11-05T21:43:54.518Z,5.95
2022-11-05T21:46:21.428Z,6.07
2022-11-05T21:48:48.110Z,6.50
2022-11-05T21:51:43.776Z,5.90
2022-11-05T21:54:30.395Z,6.03
2022-11-05T21:57:16.393Z,5.65
2022-11-05T21:59:48.587Z,5.25
2022-11-05T22:02:23.464Z,5.47
2022-11-05T22:04:53.194Z,13.02
2022-11-05T22:07:25.089Z,21.77
2022-11-05T22:09:51.928Z,8.65
2022-11-05T22:12:18.563Z,6.72
2022-11-05T22:14:45.391Z,6.28
2022-11-05T22:17:12.500Z,6.07
2022-11-05T22:19:39.135Z,6.50
2022-11-05T22:22:09.158Z,6.53
2022-11-05T22:24:38.490Z,6.80
2022-11-05T22:27:14.822Z,6.43
2022-11-05T22:29:41.885Z,6.35
2022-11-05T22:32:10.438Z,6.78
2022-11-05T22:34:36.993Z,6.43
2022-11-05T22:37:03.994Z,6.90
2022-11-05T22:39:30.641Z,7.38
2022-11-05T22:41:58.249Z,6.95
2022-11-05T22:44:26.129Z,7.03
2022-11-05T22:46:53.478Z,7.28
2022-11-05T22:49:22.442Z,6.22
2022-11-05T22:51:51.470Z,7.57
2022-11-05T22:54:18.079Z,12.77
2022-11-05T22:56:50.332Z,9.25
2022-11-05T22:59:16.897Z,11.00
2022-11-05T23:01:44.965Z,10.43
2022-11-05T23:04:12.930Z,11.35
2022-11-05T23:06:58.053Z,9.57
2022-11-05T23:10:03.148Z,7.07
2022-11-05T23:12:33.402Z,7.20
2022-11-05T23:15:05.741Z,7.57
2022-11-05T23:17:51.534Z,7.63
2022-11-05T23:20:39.863Z,16.25
2022-11-05T23:23:28.643Z,14.32
2022-11-05T23:25:59.998Z,13.75
2022-11-05T23:28:29.890Z,11.05
2022-11-05T23:31:17.519Z,9.07
2022-11-05T23:33:46.506Z,9.20
2022-11-05T23:36:31.514Z,9.10
2022-11-05T23:38:58.198Z,8.65
2022-11-05T23:41:43.320Z,8.95
2022-11-05T23:44:28.242Z,8.05
2022-11-05T23:47:13.060Z,9.40
2022-11-05T23:49:39.592Z,7.55
2022-11-05T23:52:06.102Z,8.13
2022-11-05T23:54:32.663Z,8.93
2022-11-05T23:56:59.216Z,9.15
2022-11-05T23:59:25.796Z,7.95
